PH-0039 weather

Discovery Suites Heliport
Pasig, Philippines

Public forecast

Using degrees Celsius for public forecast. Weather courtesy of forecast.io.

METAR (pilot weather report)

Closest report is Ninoy Aquino International Airport, 5.2 nm (9.6 km) SSW. Retrieved 2019/09/23 18:00 UTC (39 minutes ago):

RPLL 231800Z 01005KT 9999 FEW025 BKN100 28/24 Q1011 NOSIG RMK A2985

TAF (pilot weather forecast)

Closest forecast is Ninoy Aquino International Airport, 5.2 nm (9.6 km) SSW. Retrieved 2019/09/23 17:00 UTC (2 hours ago):

TAF RPLL 231700Z 2317/2424 12010KT 9999 FEW023 SCT300 TX33/2406Z TN26/2322Z TEMPO 2818/2824 VRB02KT FEW023 SCT100 TEMPO 2400/2406 11010KT VCTS FEW022CB SCT023 BKN300